Cessnock, New South Wales

5:01 AM EST on August 31, 2014 (GMT +1000)
Aberdare | Change Station
CLOSE
Current Station
Personal Weather Station
Location: Cessnock, N.S.W.
Elevation: 290 ft
Nearby Weather Stations

Elev 290 ft 32.84 °S, 151.37 °E | Updated 44 seconds ago

Scattered Clouds
Scattered Clouds
54.2 °F
Feels Like 54.2 °F
N
0.0
Wind Variable Wind from WNW
Gusts 0.0 mph

Today
High -- | Low -- °F
--% Chance of Precip.
Yesterday
High -- | Low -- °F
Precip. -- in
6:14 AM 5:36 PM
Waxing Crescent, 24% visible
Pressure 30.09 in
Visibility 6.2 miles
Clouds Scattered Clouds 2000 ft
Scattered Clouds 2600 ft
Dew Point 51 °F
Humidity 88%
Rainfall 0.00 in
Snow Depth Not available.
UV 0 out of 12
Pollen Not available.
Air Quality Not available.
Flu Activity Not available.
METAR YWLM 301900Z AUTO 27007KT 9999 // SCT020 SCT026 13/11 Q1019

More Conditions Fewer Conditions

Pressure 30.09 in
Visibility 6.2 miles
Clouds Scattered Clouds 2000 ft
Scattered Clouds 2600 ft
Dew Point 51 °F
Humidity 88%
Rainfall 0.00 in
Snow Depth Not available.
UV 0 out of 12
Pollen Not available.
Air Quality Not available.
Flu Activity Not available.
METAR YWLM 301900Z AUTO 27007KT 9999 // SCT020 SCT026 13/11 Q1019

More Conditions Fewer Conditions

10-Day Weather Forecast

Almanac

Astronomy

Aug. 31, 2014 Rise Set
Actual Time 6:14 AM EST 5:36 PM EST
Civil Twilight 5:49 AM EST 6:01 PM EST
Nautical Twilight 5:20 AM EST 6:30 PM EST
Astronomical Twilight 4:52 AM EST 6:58 PM EST
Moon 9:08 AM EST (8/31) 10:44 PM EST (8/31)
Length of Visible Light 12h 12m
Length of Day
11h 22m
Tomorrow will be 1m 54s longer.
Waxing Crescent, 24% of the Moon is Illuminated
Aug 30
Waxing Crescent
Sep 2
First Quarter
Sep 8
Full
Sep 15
Last Quarter
Sep 24
New

Yesterday's Extremes

Country Highs Country Lows

Community

WunderPhotos

Upload Photos

1,748,596 photos uploaded!

WunderBlogs® & News

Nearby

Snow Depth

Not available.

Earthquake Activity

City Distance Mag. Time & Date
No recent earthquake activity has been reported nearby.
Minimum magnitude displayed is 2.5.

Coastal Water Temperatures

Place Temperature
No Stations Reporting

Nearby Weather Stations